Aviation Digital Data Service (ADDS)

Output produced by TAFs form (1559 UTC 25 July 2016)
found at http://aviationweather.gov/adds/tafs/
 
KTEX 251231Z 2513/2612 12004KT P6SM SCT150 BKN250 
     FM251700 25004KT P6SM SCT250 
     FM251800 28007KT P6SM FEW110 BKN250 
     FM252100 21006KT P6SM SCT090 BKN250 
     FM260300 14004KT P6SM BKN140